createdAt,value
2022-09-17T00:09:08.368Z,99.90
2022-09-17T00:11:39.474Z,99.90
2022-09-17T00:14:10.142Z,99.90
2022-09-17T00:16:40.729Z,99.90
2022-09-17T00:19:13.981Z,99.90
2022-09-17T00:21:42.241Z,99.90
2022-09-17T00:24:14.353Z,99.90
2022-09-17T00:26:42.789Z,99.90
2022-09-17T00:34:07.284Z,99.90
2022-09-17T00:36:37.162Z,99.90
2022-09-17T00:39:06.846Z,99.90
2022-09-17T00:41:36.430Z,99.90
2022-09-17T00:44:41.870Z,99.90
2022-09-17T00:47:34.245Z,99.90
2022-09-17T00:50:12.550Z,99.90
2022-09-17T00:52:44.014Z,99.90
2022-09-17T00:55:46.972Z,99.90
2022-09-17T00:58:18.744Z,99.90
2022-09-17T01:06:05.010Z,99.90
2022-09-17T01:08:51.608Z,99.90
2022-09-17T01:11:48.346Z,99.90
2022-09-17T01:14:42.954Z,99.90
2022-09-17T01:17:42.678Z,99.90
2022-09-17T01:20:37.708Z,99.90
2022-09-17T01:25:42.627Z,99.90
2022-09-17T01:28:34.480Z,99.90
2022-09-17T01:34:11.519Z,99.90
2022-09-17T01:37:02.043Z,99.90
2022-09-17T01:39:39.609Z,99.90
2022-09-17T01:42:07.322Z,99.90
2022-09-17T01:45:03.379Z,99.90
2022-09-17T01:47:43.887Z,99.90
2022-09-17T01:50:17.524Z,99.90
2022-09-17T01:52:49.084Z,99.90
2022-09-17T01:55:19.734Z,99.90
2022-09-17T01:58:07.289Z,99.90
2022-09-17T02:00:38.859Z,99.90
2022-09-17T02:03:17.605Z,99.90
2022-09-17T02:08:50.925Z,99.90
2022-09-17T02:11:19.637Z,99.90
2022-09-17T02:14:00.353Z,99.90
2022-09-17T02:16:32.852Z,99.90
2022-09-17T02:19:28.104Z,99.90
2022-09-17T02:22:17.081Z,99.90
2022-09-17T02:24:47.648Z,99.90
2022-09-17T02:27:37.081Z,99.90
2022-09-17T02:30:05.982Z,99.90
2022-09-17T02:35:01.776Z,99.90
2022-09-17T02:37:29.541Z,99.90
2022-09-17T02:39:57.759Z,99.90
2022-09-17T02:42:36.159Z,99.90
2022-09-17T02:45:10.282Z,99.90
2022-09-17T02:48:09.035Z,99.90
2022-09-17T02:50:51.805Z,99.90
2022-09-17T02:53:35.470Z,99.90
2022-09-17T02:56:14.541Z,99.90
2022-09-17T02:59:03.026Z,99.90
2022-09-17T03:01:41.188Z,99.90
2022-09-17T03:04:12.935Z,99.90
2022-09-17T03:06:45.204Z,99.90
2022-09-17T03:09:16.801Z,99.90
2022-09-17T03:19:08.412Z,99.90
2022-09-17T03:24:04.113Z,99.90
2022-09-17T03:28:59.929Z,99.90
2022-09-17T03:36:25.052Z,99.90
2022-09-17T03:38:56.705Z,99.90
2022-09-17T03:43:53.415Z,99.90
2022-09-17T03:46:21.229Z,99.90
2022-09-17T03:51:16.656Z,99.90
2022-09-17T03:56:13.563Z,99.90
2022-09-17T04:06:05.017Z,99.90
2022-09-17T04:18:25.475Z,99.90
2022-09-17T04:20:53.589Z,99.90
2022-09-17T04:23:21.100Z,99.90
2022-09-17T04:33:12.399Z,99.90
2022-09-17T04:38:07.805Z,99.90
2022-09-17T04:55:27.511Z,99.90
2022-09-17T05:00:24.256Z,99.90
2022-09-17T05:02:55.296Z,99.90
2022-09-17T05:10:21.918Z,99.90
2022-09-17T05:12:51.185Z,99.90
2022-09-17T05:15:19.686Z,99.90
2022-09-17T05:20:18.010Z,99.90
2022-09-17T05:22:47.648Z,99.90
2022-09-17T05:25:17.426Z,99.90
2022-09-17T05:27:45.623Z,99.90
2022-09-17T05:30:13.413Z,99.90
2022-09-17T05:35:09.603Z,99.90
2022-09-17T05:40:07.868Z,99.90
2022-09-17T05:52:28.991Z,99.90
2022-09-17T05:59:53.160Z,99.90
2022-09-17T06:02:20.827Z,99.90
2022-09-17T06:12:12.514Z,99.90
2022-09-17T06:22:05.845Z,99.90
2022-09-17T06:27:01.376Z,99.90
2022-09-17T06:34:26.811Z,99.90
2022-09-17T06:46:51.385Z,99.90
2022-09-17T06:54:15.698Z,99.90
2022-09-17T06:59:11.230Z,99.90
2022-09-17T07:06:35.034Z,99.90
2022-09-17T07:09:02.802Z,99.90
2022-09-17T07:23:54.461Z,99.90
2022-09-17T07:26:22.678Z,99.90
2022-09-17T07:28:50.360Z,99.90
2022-09-17T07:31:18.487Z,99.90
2022-09-17T07:36:18.143Z,99.90
2022-09-17T07:41:16.987Z,99.90
2022-09-17T07:43:45.352Z,99.90
2022-09-17T07:46:19.627Z,99.90
2022-09-17T07:48:49.148Z,99.90
2022-09-17T07:51:25.736Z,99.90
2022-09-17T07:53:58.848Z,99.90
2022-09-17T07:56:28.027Z,99.90
2022-09-17T08:03:56.067Z,99.90
2022-09-17T08:06:28.810Z,99.90
2022-09-17T08:11:51.920Z,99.90
2022-09-17T08:16:47.685Z,99.90
2022-09-17T08:21:46.279Z,99.90
2022-09-17T08:24:13.876Z,99.90
2022-09-17T08:31:39.385Z,99.90
2022-09-17T08:34:07.939Z,99.90
2022-09-17T08:44:03.672Z,99.90
2022-09-17T08:46:43.768Z,99.90
2022-09-17T08:49:26.088Z,99.90
2022-09-17T08:52:15.683Z,99.90
2022-09-17T08:55:04.694Z,99.90
2022-09-17T08:57:41.335Z,99.90
2022-09-17T09:00:22.739Z,99.90
2022-09-17T09:03:17.801Z,99.90
2022-09-17T09:05:47.950Z,99.90
2022-09-17T09:08:30.442Z,99.90
2022-09-17T09:11:01.675Z,99.90
2022-09-17T09:13:36.524Z,99.90
2022-09-17T09:16:12.907Z,99.90
2022-09-17T09:18:42.414Z,99.90
2022-09-17T09:21:27.686Z,99.90
2022-09-17T09:24:19.233Z,99.90
2022-09-17T09:26:58.897Z,99.90
2022-09-17T09:29:38.771Z,99.90
2022-09-17T09:34:45.931Z,99.90
2022-09-17T09:37:31.398Z,99.90
2022-09-17T09:40:16.480Z,99.90
2022-09-17T09:42:46.546Z,99.90
2022-09-17T09:45:19.416Z,99.90
2022-09-17T09:48:23.845Z,99.90
2022-09-17T09:51:11.852Z,99.90
2022-09-17T09:54:07.281Z,99.90
2022-09-17T09:56:46.133Z,99.90
2022-09-17T09:59:14.101Z,99.90
2022-09-17T10:01:45.418Z,99.90
2022-09-17T10:04:32.998Z,99.90
2022-09-17T10:07:05.879Z,99.90
2022-09-17T10:09:37.008Z,99.90
2022-09-17T10:12:09.415Z,99.90
2022-09-17T10:14:39.325Z,99.90
2022-09-17T10:17:23.808Z,99.90
2022-09-17T10:20:07.863Z,99.90
2022-09-17T10:22:40.324Z,99.90
2022-09-17T10:25:18.947Z,99.90
2022-09-17T10:27:48.436Z,99.90
2022-09-17T10:30:19.138Z,99.90
2022-09-17T10:33:15.750Z,99.90
2022-09-17T10:35:56.344Z,99.90
2022-09-17T10:38:33.798Z,99.90
2022-09-17T10:41:25.215Z,99.90
2022-09-17T10:43:52.959Z,99.90
2022-09-17T10:46:29.367Z,99.90
2022-09-17T10:49:29.585Z,99.90
2022-09-17T10:52:34.536Z,99.90
2022-09-17T10:55:27.851Z,99.90
2022-09-17T10:58:07.856Z,99.90
2022-09-17T11:00:55.230Z,99.90
2022-09-17T11:03:51.794Z,99.90
2022-09-17T11:09:04.309Z,99.90
2022-09-17T11:12:00.136Z,99.90
2022-09-17T11:14:52.519Z,99.90
2022-09-17T11:17:38.612Z,99.90
2022-09-17T11:20:26.628Z,99.90
2022-09-17T11:23:34.349Z,99.90
2022-09-17T11:26:20.910Z,99.90
2022-09-17T11:28:54.627Z,99.90
2022-09-17T11:34:14.078Z,99.90
2022-09-17T11:36:53.638Z,99.90
2022-09-17T11:40:05.079Z,99.90
2022-09-17T11:42:41.422Z,99.90
2022-09-17T11:45:19.351Z,99.90
2022-09-17T11:48:07.373Z,99.90
2022-09-17T11:50:42.992Z,99.90
2022-09-17T11:53:22.444Z,99.90
2022-09-17T11:56:05.888Z,99.90
2022-09-17T11:59:12.301Z,99.90
2022-09-17T12:02:02.429Z,99.90
2022-09-17T12:04:52.139Z,99.90
2022-09-17T12:07:41.424Z,99.90
2022-09-17T12:10:31.996Z,99.90
2022-09-17T12:13:14.821Z,99.90
2022-09-17T12:15:53.094Z,99.90
2022-09-17T12:18:31.655Z,99.90
2022-09-17T12:21:02.970Z,99.90
2022-09-17T12:23:52.231Z,99.90
2022-09-17T12:26:55.311Z,99.90
2022-09-17T12:29:31.401Z,99.90
2022-09-17T12:34:46.763Z,99.90
2022-09-17T12:37:35.052Z,99.90
2022-09-17T12:40:33.187Z,99.90
2022-09-17T12:43:28.790Z,99.90
2022-09-17T12:46:04.595Z,99.90
2022-09-17T12:48:52.697Z,99.90
2022-09-17T12:51:29.745Z,99.90
2022-09-17T12:54:17.294Z,99.90
2022-09-17T12:57:07.115Z,99.90
2022-09-17T12:59:41.122Z,99.90
2022-09-17T13:03:10.228Z,99.90
2022-09-17T13:06:04.924Z,99.70
2022-09-17T13:08:59.635Z,99.80
2022-09-17T13:11:49.112Z,99.40
2022-09-17T13:14:38.072Z,98.70
2022-09-17T13:17:09.887Z,98.50
2022-09-17T13:19:55.610Z,98.30
2022-09-17T13:22:30.469Z,98.10
2022-09-17T13:25:10.063Z,98.10
2022-09-17T13:27:39.385Z,97.60
2022-09-17T13:30:09.840Z,97.60
2022-09-17T13:32:38.977Z,97.00
2022-09-17T13:35:09.742Z,97.90
2022-09-17T13:37:54.655Z,96.10
2022-09-17T13:40:38.390Z,96.50
2022-09-17T13:43:08.832Z,96.70
2022-09-17T13:45:59.192Z,97.10
2022-09-17T13:48:31.130Z,96.80
2022-09-17T13:51:30.740Z,97.80
2022-09-17T13:54:09.848Z,98.00
2022-09-17T13:56:44.326Z,97.40
2022-09-17T13:59:27.876Z,96.70
2022-09-17T14:02:01.818Z,97.10
2022-09-17T14:04:47.082Z,97.30
2022-09-17T14:07:24.126Z,97.50
2022-09-17T14:09:51.906Z,96.70
2022-09-17T14:12:48.659Z,95.20
2022-09-17T14:15:54.663Z,95.50
2022-09-17T14:18:28.554Z,95.20
2022-09-17T14:21:14.643Z,95.60
2022-09-17T14:23:45.303Z,94.60
2022-09-17T14:26:25.352Z,95.40
2022-09-17T14:29:30.149Z,95.40
2022-09-17T14:31:58.308Z,95.10
2022-09-17T14:34:27.382Z,95.10
2022-09-17T14:36:56.241Z,95.60
2022-09-17T14:39:28.641Z,96.30
2022-09-17T14:41:56.458Z,97.40
2022-09-17T14:44:27.270Z,97.60
2022-09-17T14:46:57.349Z,97.50
2022-09-17T14:49:28.395Z,97.60
2022-09-17T14:51:58.023Z,97.50
2022-09-17T14:54:35.107Z,97.80
2022-09-17T14:57:09.059Z,98.60
2022-09-17T14:59:50.792Z,98.20
2022-09-17T15:02:33.625Z,98.20
2022-09-17T15:10:13.332Z,98.30
2022-09-17T15:12:41.045Z,96.70
2022-09-17T15:15:26.339Z,96.00
2022-09-17T15:17:55.367Z,95.80
2022-09-17T15:20:28.024Z,96.60
2022-09-17T15:23:14.309Z,96.60
2022-09-17T15:25:44.290Z,96.80
2022-09-17T15:28:36.615Z,97.80
2022-09-17T15:31:06.674Z,97.50
2022-09-17T15:33:34.487Z,97.50
2022-09-17T15:36:22.064Z,97.70
2022-09-17T15:38:51.185Z,97.70
2022-09-17T15:41:25.339Z,98.20
2022-09-17T15:44:03.715Z,98.10
2022-09-17T15:46:41.031Z,98.50
2022-09-17T15:49:35.597Z,97.90
2022-09-17T15:52:28.305Z,97.80
2022-09-17T15:54:56.020Z,98.20
2022-09-17T15:57:25.305Z,98.30
2022-09-17T15:59:53.780Z,98.10
2022-09-17T16:02:31.166Z,98.60
2022-09-17T16:05:15.423Z,98.20
2022-09-17T16:07:45.242Z,97.90
2022-09-17T16:10:15.549Z,97.60
2022-09-17T16:12:44.060Z,97.60
2022-09-17T16:15:13.540Z,98.00
2022-09-17T16:17:48.403Z,98.80
2022-09-17T16:20:24.840Z,98.00
2022-09-17T16:22:53.553Z,98.10
2022-09-17T16:25:27.449Z,97.70
2022-09-17T16:28:02.360Z,97.70
2022-09-17T16:30:30.162Z,97.30
2022-09-17T16:32:58.575Z,97.50
2022-09-17T16:35:26.863Z,97.50
2022-09-17T16:37:56.288Z,96.90
2022-09-17T16:40:27.826Z,96.90
2022-09-17T16:42:55.946Z,96.90
2022-09-17T16:45:28.111Z,97.10
2022-09-17T16:47:56.775Z,97.70
2022-09-17T16:50:24.872Z,97.90
2022-09-17T16:52:53.618Z,97.90
2022-09-17T16:55:21.979Z,97.50
2022-09-17T16:57:49.945Z,97.70
2022-09-17T17:00:19.713Z,97.90
2022-09-17T17:02:55.888Z,98.70
2022-09-17T17:05:25.217Z,99.40
2022-09-17T17:07:55.030Z,99.20
2022-09-17T17:10:24.035Z,99.30
2022-09-17T17:12:52.504Z,99.50
2022-09-17T17:17:49.861Z,99.90
2022-09-17T17:20:17.994Z,99.90
2022-09-17T17:22:45.463Z,99.90
2022-09-17T17:25:14.552Z,99.90
2022-09-17T17:27:42.368Z,99.90
2022-09-17T17:30:16.534Z,99.90
2022-09-17T17:32:46.085Z,99.90
2022-09-17T17:35:13.999Z,99.90
2022-09-17T17:40:10.511Z,99.90
2022-09-17T17:42:39.562Z,99.90
2022-09-17T17:45:08.039Z,99.90
2022-09-17T17:47:35.721Z,99.90
2022-09-17T17:50:04.432Z,99.90
2022-09-17T17:52:32.191Z,99.90
2022-09-17T17:57:27.678Z,99.90
2022-09-17T17:59:55.477Z,99.90
2022-09-17T18:02:23.293Z,99.90
2022-09-17T18:04:50.922Z,99.90
2022-09-17T18:09:47.130Z,99.90
2022-09-17T18:12:14.911Z,99.90
2022-09-17T18:14:42.445Z,99.90
2022-09-17T18:19:37.929Z,99.90
2022-09-17T18:22:05.370Z,99.90
2022-09-17T18:24:33.097Z,99.90
2022-09-17T18:27:00.787Z,99.90
2022-09-17T18:29:29.205Z,99.90
2022-09-17T18:34:24.817Z,99.90
2022-09-17T18:36:52.716Z,99.90
2022-09-17T18:42:09.584Z,99.90
2022-09-17T18:44:37.196Z,99.90
2022-09-17T18:49:32.770Z,99.90
2022-09-17T18:52:00.519Z,99.90
2022-09-17T18:54:28.111Z,99.90
2022-09-17T18:59:23.713Z,99.90
2022-09-17T19:01:51.413Z,99.90
2022-09-17T19:06:46.949Z,99.90
2022-09-17T19:14:10.857Z,99.90
2022-09-17T19:16:38.542Z,99.90
2022-09-17T19:19:06.043Z,99.90
2022-09-17T19:24:03.497Z,99.90
2022-09-17T19:26:31.189Z,99.90
2022-09-17T19:29:00.518Z,99.90
2022-09-17T19:31:28.952Z,99.90
2022-09-17T19:33:58.502Z,99.90
2022-09-17T19:36:26.463Z,99.90
2022-09-17T19:38:54.202Z,99.90
2022-09-17T19:41:25.495Z,99.90
2022-09-17T19:43:54.798Z,99.90
2022-09-17T19:46:24.430Z,99.90
2022-09-17T19:48:57.186Z,99.90
2022-09-17T19:51:27.051Z,99.90
2022-09-17T19:56:24.416Z,99.90
2022-09-17T19:58:52.295Z,99.90
2022-09-17T20:01:20.143Z,99.90
2022-09-17T20:03:47.800Z,99.90
2022-09-17T20:06:18.176Z,99.90
2022-09-17T20:08:47.654Z,99.90
2022-09-17T20:11:16.986Z,99.90
2022-09-17T20:13:44.672Z,99.90
2022-09-17T20:16:18.310Z,99.90
2022-09-17T20:18:47.225Z,99.90
2022-09-17T20:21:17.656Z,99.90
2022-09-17T20:23:45.716Z,99.90
2022-09-17T20:26:14.739Z,99.90
2022-09-17T20:28:42.833Z,99.90
2022-09-17T20:31:14.755Z,99.90
2022-09-17T20:36:19.870Z,99.90
2022-09-17T20:41:38.849Z,99.90
2022-09-17T20:44:07.399Z,99.90
2022-09-17T20:49:02.949Z,99.90
2022-09-17T20:51:32.778Z,99.90
2022-09-17T20:56:35.278Z,99.90
2022-09-17T20:59:13.153Z,99.90
2022-09-17T21:01:41.630Z,99.90
2022-09-17T21:06:38.333Z,99.90
2022-09-17T21:09:06.713Z,99.90
2022-09-17T21:11:34.992Z,99.90
2022-09-17T21:14:02.724Z,99.90
2022-09-17T21:16:30.641Z,99.90
2022-09-17T21:19:01.584Z,99.90
2022-09-17T21:21:30.020Z,99.90
2022-09-17T21:24:02.199Z,99.90
2022-09-17T21:26:30.425Z,99.90
2022-09-17T21:28:58.520Z,99.90
2022-09-17T21:31:33.250Z,99.90
2022-09-17T21:34:06.255Z,99.90
2022-09-17T21:39:08.091Z,99.90
2022-09-17T21:41:39.912Z,99.90
2022-09-17T21:44:11.660Z,99.90
2022-09-17T21:46:40.499Z,99.90
2022-09-17T21:49:09.260Z,99.90
2022-09-17T21:51:39.269Z,99.90
2022-09-17T21:54:12.180Z,99.90
2022-09-17T21:56:40.029Z,99.90
2022-09-17T21:59:10.953Z,99.90
2022-09-17T22:04:20.677Z,99.90
2022-09-17T22:06:49.833Z,99.90
2022-09-17T22:11:38.165Z,99.90
2022-09-17T22:14:10.876Z,99.90
2022-09-17T22:16:44.077Z,99.90
2022-09-17T22:19:14.249Z,99.90
2022-09-17T22:21:46.016Z,99.90
2022-09-17T22:24:15.376Z,99.90
2022-09-17T22:26:46.094Z,99.90
2022-09-17T22:29:20.238Z,99.90
2022-09-17T22:34:20.002Z,99.90
2022-09-17T22:41:47.125Z,99.90
2022-09-17T22:44:16.737Z,99.90
2022-09-17T22:46:46.439Z,99.90
2022-09-17T22:49:14.822Z,99.90
2022-09-17T22:51:42.769Z,99.90
2022-09-17T22:54:12.480Z,99.90
2022-09-17T22:59:07.947Z,99.90
2022-09-17T23:01:36.565Z,99.90
2022-09-17T23:04:06.009Z,99.90
2022-09-17T23:06:36.321Z,99.90
2022-09-17T23:09:04.930Z,99.90
2022-09-17T23:11:35.669Z,99.90
2022-09-17T23:14:06.918Z,99.90
2022-09-17T23:16:36.741Z,99.90
2022-09-17T23:19:05.394Z,99.90
2022-09-17T23:21:33.278Z,99.90
2022-09-17T23:24:01.283Z,99.90
2022-09-17T23:26:28.889Z,99.90
2022-09-17T23:28:59.981Z,99.90
2022-09-17T23:33:59.490Z,99.90
2022-09-17T23:36:32.970Z,99.90
2022-09-17T23:39:02.484Z,99.90
2022-09-17T23:41:36.218Z,99.90
2022-09-17T23:44:10.746Z,99.90
2022-09-17T23:49:10.939Z,99.90
2022-09-17T23:51:38.914Z,99.90
2022-09-17T23:54:07.356Z,99.90
2022-09-17T23:56:35.758Z,99.90
2022-09-17T23:59:04.665Z,99.90
